METAR stanice u blizini

 

LYBE - Beograd / Surčin, Srbija
Ažurirano: 09/07/2020 01:00
Vedro
Vedro
 Pravac vetra JJI
Vetar: JJI 7 km/h
Temperatura: 16°C
Tačka rose: 11°C
Vlažnost: 72%
Pritisak: 1019 hPa
Pregled: Vedro
Vidljivost: greater than 10 km
2020/07/08 23:00 LYBE 082300Z 16004KT CAVOK 16/11 Q1019 NOSIG
LYBT - Beograd / Batajnica, Srbija
Ažurirano: 09/07/2020 01:00
Vedro
Vedro
 Pravac vetra SZ
Vetar: SZ 2 km/h
Temperatura: 14°C
Tačka rose: 11°C
Vlažnost: 82%
Pritisak: 1018 hPa
Pregled: Vedro
Vidljivost: greater than 10 km
2020/07/08 23:00 LYBT 082300Z 31001KT CAVOK 14/11 Q1018 NOSIG
LYVR - Vršac, Srbija
Ažurirano: 09/07/2020 01:00
Vedro
Vedro
 Pravac vetra SI
Vetar: SI 4 km/h
Temperatura: 13°C
Tačka rose: 11°C
Vlažnost: 88%
Pritisak: 1019 hPa
Pregled: Vedro
Vidljivost: greater than 10 km
2020/07/08 23:00 LYVR 082300Z AUTO 04002KT CAVOK 13/11 Q1019
 
LYKV - Lađevci, Srbija
Ažurirano: 09/07/2020 01:00
Vedro
Vedro
 Pravac vetra calm
Vetar: Tišina
Temperatura: 12°C
Tačka rose: 12°C
Vlažnost: 100%
Pritisak: 1020 hPa
Pregled: Vedro
Vidljivost: greater than 10 km
2020/07/08 23:00 LYKV 082300Z 00000KT CAVOK 12/12 Q1020 NOSIG
LYNI - Niš, Srbija
Ažurirano: 09/07/2020 01:00
Vedro
Vedro
 Pravac vetra varies
Vetar: varies 2 km/h
Temperatura: 14°C
Tačka rose: 10°C
Vlažnost: 77%
Pritisak: 1019 hPa
Pregled: Vedro
Vidljivost: greater than 10 km
2020/07/08 23:00 LYNI 082300Z VRB01KT CAVOK 14/10 Q1019 NOSIG
BKPR - Priština, Srbija
Ažurirano: 09/07/2020 01:00
Vedro
Vedro
 Pravac vetra SZ
Vetar: SZ 9 km/h
Temperatura: 15°C
Tačka rose: 9°C
Vlažnost: 68%
Pritisak: 1020 hPa
Pregled: Vedro
Vidljivost: greater than 10 km
2020/07/08 23:00 BKPR 082300Z 32005KT CAVOK 15/09 Q1020 NOSIG
 
LHPP - Pecs / Pogany, Hungary
Ažurirano: 08/07/2020 19:45
NOT Current
Vedro
Vedro
 Pravac vetra JJZ
Vetar: JJZ 9 km/h
Temperatura: 24°C
Tačka rose: 9°C
Vlažnost: 39%
Pritisak: 1017 hPa
Pregled: Vedro
Vidljivost: greater than 10 km
2020/07/08 17:45 LHPP 081745Z 20005KT CAVOK 24/09 Q1017
LHUD - Szeged, Hungary
Ažurirano: 04/07/2019 01:45
NOT Current
Vedro
Vedro
 Pravac vetra S
Vetar: S 7 km/h
Temperatura: 18°C
Tačka rose: 13°C
Vlažnost: 73%
Pritisak: 1019 hPa
Pregled: Vedro
Vidljivost: greater than 10 km
2019/07/03 23:45 LHUD 032345Z 35004KT CAVOK 18/13 Q1019
LRTR - Timisoara, Romania
Ažurirano: 09/07/2020 01:00
Vedro
Vedro
 Pravac vetra ISI
Vetar: ISI 13 km/h
Temperatura: 13°C
Tačka rose: 13°C
Vlažnost: 100%
Pritisak: 1018 hPa
Pregled: Vedro
Vidljivost: greater than 10 km
2020/07/08 23:00 LRTR 082300Z 07007KT CAVOK 13/13 Q1018
 
LRCV - Craiova, Romania
Ažurirano: 09/07/2020 01:00
Vedro
Vedro
 Pravac vetra varies
Vetar: varies 2 km/h
Temperatura: 15°C
Tačka rose: 10°C
Vlažnost: 72%
Pritisak: 1018 hPa
Pregled: Vedro
Vidljivost: greater than 10 km
2020/07/08 23:00 LRCV 082300Z VRB01KT CAVOK 15/10 Q1018
LBSF - Sofia, Bulgaria
Ažurirano: 09/07/2020 01:00
Vedro
Vedro
 Pravac vetra varies
Vetar: varies 4 km/h
Temperatura: 14°C
Tačka rose: 11°C
Vlažnost: 82%
Pritisak: 1020 hPa
Pregled: Vedro
Vidljivost: greater than 10 km
2020/07/08 23:00 LBSF 082300Z VRB02KT CAVOK 14/11 Q1020 NOSIG
LWSK - Skoplje, Makedonija
Ažurirano: 09/07/2020 01:00
Vedro
Vedro
 Pravac vetra Z
Vetar: Z 2 km/h
Temperatura: 15°C
Tačka rose: 10°C
Vlažnost: 72%
Pritisak: 1019 hPa
Pregled: Vedro
Vidljivost: greater than 10 km
2020/07/08 23:00 LWSK 082300Z 28001KT CAVOK 15/10 Q1019 NOSIG
 
LYPG - Podgorica, Crna Gora
Ažurirano: 09/07/2020 01:00
Vedro
Vedro
 Pravac vetra SSZ
Vetar: SSZ 7 km/h
Temperatura: 22°C
Tačka rose: 11°C
Vlažnost: 50%
Pritisak: 1015 hPa
Pregled: Vedro
Vidljivost: greater than 10 km
2020/07/08 23:00 LYPG 082300Z 33004KT CAVOK 22/11 Q1015 NOSIG
LQSA - Sarajevo, Bosna i Hercegovina
Ažurirano: 09/07/2020 01:00
Vedro
Vedro
 Pravac vetra JJI
Vetar: JJI 7 km/h
Temperatura: 14°C
Tačka rose: 11°C
Vlažnost: 82%
Pritisak: 1020 hPa
Pregled: Vedro
Vidljivost: greater than 10 km
2020/07/08 23:00 LQSA 082300Z 15004KT 110V180 CAVOK 14/11 Q1020
LDOS - Osijek, Hrvatksa
Ažurirano: 09/07/2020 01:00
Vedro
Vedro
 Pravac vetra calm
Vetar: Tišina
Temperatura: 13°C
Tačka rose: 10°C
Vlažnost: 82%
Pritisak: 1018 hPa
Pregled: Vedro
Vidljivost: greater than 10 km
2020/07/08 23:00 LDOS 082300Z 00000KT CAVOK 13/10 Q1018